Time,TemperatureF,DewpointF,PressureIn,WindDirection,WindDirectionDegrees,WindSpeedMPH,WindSpeedGustMPH,Humidity,HourlyPrecipIn,Conditions,Clouds,dailyrainin,SoftwareType,DateUTC
2013-08-21 00:13:00,73.0,67.0,29.95,South,171,0.0,3.0,82,0.00,,,0.00,,2013-08-21 05:13:00,
2013-08-21 00:23:00,73.0,67.0,29.95,South,181,0.0,3.0,82,0.00,,,0.00,,2013-08-21 05:23:00,
2013-08-21 00:43:00,73.0,67.0,29.94,SSW,200,1.0,5.0,82,0.00,,,0.00,,2013-08-21 05:43:00,
2013-08-21 00:52:00,73.0,67.0,29.94,South,171,1.0,6.0,82,0.00,,,0.00,,2013-08-21 05:52:00,
2013-08-21 01:12:00,73.0,67.0,29.94,SSE,168,2.0,7.0,82,0.00,,,0.00,,2013-08-21 06:12:00,
2013-08-21 01:22:00,72.0,66.0,29.93,South,184,2.0,4.0,82,0.00,,,0.00,,2013-08-21 06:22:00,
2013-08-21 01:42:00,72.0,66.0,29.93,SE,131,2.0,7.0,82,0.00,,,0.00,,2013-08-21 06:42:00,
2013-08-21 01:52:00,72.0,66.0,29.92,SSE,165,2.0,7.0,82,0.00,,,0.00,,2013-08-21 06:52:00,
2013-08-21 02:11:00,72.0,66.0,29.92,South,190,2.0,9.0,82,0.00,,,0.00,,2013-08-21 07:11:00,
2013-08-21 02:22:00,72.0,66.0,29.92,South,175,3.0,6.0,82,0.00,,,0.00,,2013-08-21 07:22:00,
2013-08-21 02:42:00,72.0,66.0,29.92,SE,134,3.0,7.0,82,0.00,,,0.00,,2013-08-21 07:42:00,
2013-08-21 02:53:00,72.0,66.0,29.92,SSW,213,2.0,6.0,82,0.00,,,0.00,,2013-08-21 07:53:00,
2013-08-21 03:12:00,72.0,66.0,29.93,SSE,160,4.0,8.0,82,0.00,,,0.00,,2013-08-21 08:12:00,
2013-08-21 03:22:00,72.0,66.0,29.93,South,171,2.0,6.0,82,0.00,,,0.00,,2013-08-21 08:22:00,
2013-08-21 03:43:00,71.0,65.0,29.93,SSE,167,2.0,5.0,82,0.00,,,0.00,,2013-08-21 08:43:00,
2013-08-21 03:53:00,71.0,66.0,29.93,South,171,1.0,5.0,83,0.00,,,0.00,,2013-08-21 08:53:00,
2013-08-21 04:11:00,71.0,66.0,29.92,SSE,163,1.0,4.0,84,0.00,,,0.00,,2013-08-21 09:11:00,
2013-08-21 04:22:00,70.0,65.0,29.92,South,171,1.0,4.0,85,0.00,,,0.00,,2013-08-21 09:22:00,
2013-08-21 04:43:00,70.0,66.0,29.92,South,173,2.0,6.0,86,0.00,,,0.00,,2013-08-21 09:43:00,
2013-08-21 04:54:00,69.0,65.0,29.92,SSE,150,2.0,4.0,86,0.00,,,0.00,,2013-08-21 09:54:00,
2013-08-21 05:13:00,69.0,65.0,29.92,South,175,1.0,6.0,86,0.00,,,0.00,,2013-08-21 10:13:00,
2013-08-21 05:23:00,69.0,65.0,29.92,South,179,2.0,5.0,86,0.00,,,0.00,,2013-08-21 10:23:00,
2013-08-21 05:43:00,69.0,65.0,29.92,South,182,1.0,5.0,87,0.00,,,0.00,,2013-08-21 10:43:00,
2013-08-21 05:52:00,69.0,65.0,29.91,South,170,1.0,5.0,87,0.00,,,0.00,,2013-08-21 10:52:00,
2013-08-21 06:12:00,68.0,64.0,29.91,South,178,1.0,5.0,88,0.00,,,0.00,,2013-08-21 11:12:00,
2013-08-21 06:22:00,68.0,64.0,29.91,South,178,2.0,7.0,88,0.00,,,0.00,,2013-08-21 11:22:00,
2013-08-21 06:42:00,68.0,64.0,29.91,SSW,194,2.0,6.0,88,0.00,,,0.00,,2013-08-21 11:42:00,
2013-08-21 06:52:00,68.0,65.0,29.92,SSE,168,2.0,6.0,89,0.00,,,0.00,,2013-08-21 11:52:00,
2013-08-21 07:12:00,68.0,65.0,29.92,SSE,164,2.0,6.0,89,0.00,,,0.00,,2013-08-21 12:12:00,
2013-08-21 07:22:00,68.0,65.0,29.92,SSW,196,1.0,3.0,89,0.00,,,0.00,,2013-08-21 12:22:00,
2013-08-21 07:42:00,69.0,65.0,29.93,SSW,195,0.0,5.0,88,0.00,,,0.00,,2013-08-21 12:42:00,
2013-08-21 07:52:00,70.0,66.0,29.93,SSE,151,2.0,9.0,87,0.00,,,0.00,,2013-08-21 12:52:00,
2013-08-21 08:12:00,70.0,65.0,29.94,SSE,164,4.0,6.0,85,0.00,,,0.00,,2013-08-21 13:12:00,
2013-08-21 08:21:00,71.0,66.0,29.93,South,180,4.0,10.0,85,0.00,,,0.00,,2013-08-21 13:21:00,
2013-08-21 08:42:00,72.0,67.0,29.93,SSW,194,2.0,8.0,84,0.00,,,0.00,,2013-08-21 13:42:00,
2013-08-21 08:52:00,73.0,67.0,29.93,SSW,206,4.0,8.0,82,0.00,,,0.00,,2013-08-21 13:52:00,
2013-08-21 09:11:00,74.0,67.0,29.93,SW,223,5.0,8.0,80,0.00,,,0.00,,2013-08-21 14:11:00,
2013-08-21 09:21:00,76.0,69.0,29.93,South,183,2.0,8.0,79,0.00,,,0.00,,2013-08-21 14:21:00,
2013-08-21 09:42:00,77.0,69.0,29.92,SE,141,3.0,7.0,76,0.00,,,0.00,,2013-08-21 14:42:00,
2013-08-21 09:52:00,78.0,69.0,29.92,SSW,211,4.0,8.0,75,0.00,,,0.00,,2013-08-21 14:52:00,
2013-08-21 10:11:00,78.0,69.0,29.91,SW,219,3.0,8.0,75,0.00,,,0.00,,2013-08-21 15:11:00,
2013-08-21 10:22:00,79.0,70.0,29.92,SSW,198,3.0,11.0,73,0.00,,,0.00,,2013-08-21 15:22:00,
2013-08-21 10:43:00,79.0,70.0,29.92,WSW,250,3.0,8.0,73,0.00,,,0.00,,2013-08-21 15:43:00,
2013-08-21 10:55:00,79.0,70.0,29.92,SSE,157,3.0,10.0,73,0.00,,,0.00,,2013-08-21 15:55:00,
2013-08-21 11:13:00,80.0,70.0,29.92,SSW,205,3.0,11.0,71,0.00,,,0.00,,2013-08-21 16:13:00,
2013-08-21 11:24:00,82.0,71.0,29.91,WSW,242,4.0,8.0,69,0.00,,,0.00,,2013-08-21 16:24:00,
2013-08-21 11:43:00,82.0,71.0,29.91,South,182,2.0,8.0,69,0.00,,,0.00,,2013-08-21 16:43:00,
2013-08-21 11:53:00,83.0,72.0,29.91,SSW,208,3.0,9.0,69,0.00,,,0.00,,2013-08-21 16:53:00,
2013-08-21 12:13:00,83.0,71.0,29.90,South,182,5.0,8.0,67,0.00,,,0.00,,2013-08-21 17:13:00,
2013-08-21 12:23:00,84.0,71.0,29.90,SSE,155,5.0,9.0,66,0.00,,,0.00,,2013-08-21 17:23:00,
2013-08-21 12:43:00,84.0,71.0,29.90,South,191,4.0,11.0,66,0.00,,,0.00,,2013-08-21 17:43:00,
2013-08-21 12:53:00,85.0,72.0,29.89,SSE,165,3.0,10.0,66,0.00,,,0.00,,2013-08-21 17:53:00,
2013-08-21 13:12:00,85.0,71.0,29.88,SE,134,5.0,15.0,64,0.00,,,0.00,,2013-08-21 18:12:00,
2013-08-21 13:22:00,86.0,72.0,29.88,South,190,4.0,13.0,64,0.00,,,0.00,,2013-08-21 18:22:00,
2013-08-21 13:42:00,86.0,72.0,29.88,SSW,196,5.0,12.0,63,0.00,,,0.00,,2013-08-21 18:42:00,
2013-08-21 13:52:00,86.0,72.0,29.88,SSW,197,4.0,9.0,64,0.00,,,0.00,,2013-08-21 18:52:00,
2013-08-21 14:12:00,87.0,73.0,29.87,SSW,205,4.0,10.0,63,0.00,,,0.00,,2013-08-21 19:12:00,
2013-08-21 14:22:00,88.0,73.0,29.87,SSE,162,4.0,10.0,61,0.00,,,0.00,,2013-08-21 19:22:00,
2013-08-21 14:52:00,88.0,73.0,29.87,South,181,4.0,8.0,61,0.00,,,0.00,,2013-08-21 19:52:00,
2013-08-21 15:11:00,88.0,73.0,29.87,SW,236,4.0,13.0,61,0.00,,,0.00,,2013-08-21 20:11:00,
2013-08-21 15:22:00,89.0,73.0,29.88,South,187,5.0,12.0,60,0.00,,,0.00,,2013-08-21 20:22:00,
2013-08-21 15:52:00,87.0,72.0,29.88,South,189,7.0,16.0,62,0.00,,,0.00,,2013-08-21 20:52:00,
2013-08-21 16:12:00,87.0,73.0,29.88,SW,220,6.0,13.0,63,0.00,,,0.00,,2013-08-21 21:12:00,
2013-08-21 16:21:00,86.0,72.0,29.88,West,273,6.0,13.0,64,0.00,,,0.00,,2013-08-21 21:21:00,
2013-08-21 16:55:00,84.0,72.0,29.88,SW,234,5.0,11.0,67,0.00,,,0.00,,2013-08-21 21:55:00,
2013-08-21 17:14:00,85.0,73.0,29.87,SW,219,4.0,12.0,68,0.00,,,0.00,,2013-08-21 22:14:00,
2013-08-21 17:24:00,85.0,73.0,29.86,WNW,289,5.0,14.0,67,0.00,,,0.00,,2013-08-21 22:24:00,
2013-08-21 17:53:00,83.0,73.0,29.88,SSW,206,3.0,12.0,71,0.00,,,0.00,,2013-08-21 22:53:00,
2013-08-21 18:12:00,82.0,72.0,29.88,SW,227,1.0,7.0,73,0.00,,,0.00,,2013-08-21 23:12:00,
2013-08-21 18:22:00,82.0,72.0,29.89,SSW,207,3.0,8.0,73,0.00,,,0.00,,2013-08-21 23:22:00,
2013-08-21 18:53:00,81.0,73.0,29.89,WNW,300,5.0,10.0,76,0.00,,,0.00,,2013-08-21 23:53:00,
2013-08-21 19:12:00,81.0,73.0,29.91,WNW,292,5.0,12.0,76,0.00,,,0.00,,2013-08-22 00:12:00,
2013-08-21 19:22:00,78.0,72.0,29.96,NE,42,5.0,13.0,83,0.03,,,0.03,,2013-08-22 00:22:00,
2013-08-21 19:42:00,74.0,70.0,29.96,WNW,292,5.0,15.0,87,0.05,,,0.05,,2013-08-22 00:42:00,
2013-08-21 19:52:00,72.0,68.0,29.94,NNW,337,1.0,5.0,88,0.05,,,0.05,,2013-08-22 00:52:00,
2013-08-21 20:11:00,72.0,69.0,29.93,NNW,337,0.0,1.0,90,0.05,,,0.05,,2013-08-22 01:11:00,
2013-08-21 20:22:00,72.0,70.0,29.94,NNE,27,0.0,2.0,92,0.02,,,0.05,,2013-08-22 01:22:00,
2013-08-21 20:42:00,71.0,69.0,29.95,SE,130,2.0,5.0,92,0.00,,,0.05,,2013-08-22 01:42:00,
2013-08-21 20:52:00,70.0,68.0,29.96,SSE,147,1.0,3.0,92,0.00,,,0.05,,2013-08-22 01:52:00,
2013-08-21 21:12:00,69.0,67.0,29.96,NNE,26,0.0,4.0,93,0.00,,,0.05,,2013-08-22 02:12:00,
2013-08-21 21:22:00,69.0,67.0,29.97,NNE,26,0.0,1.0,93,0.00,,,0.05,,2013-08-22 02:22:00,
2013-08-21 22:12:00,67.0,66.0,29.98,South,191,0.0,3.0,95,0.00,,,0.05,,2013-08-22 03:12:00,
2013-08-21 22:22:00,68.0,67.0,29.99,SSW,211,0.0,2.0,96,0.00,,,0.05,,2013-08-22 03:22:00,
2013-08-21 22:45:00,68.0,67.0,29.99,South,190,0.0,3.0,96,0.00,,,0.05,,2013-08-22 03:45:00,
2013-08-21 22:54:00,68.0,67.0,29.99,SSW,192,0.0,2.0,96,0.00,,,0.05,,2013-08-22 03:54:00,
2013-08-21 23:14:00,68.0,67.0,29.99,WSW,248,0.0,3.0,96,0.00,,,0.05,,2013-08-22 04:14:00,
2013-08-21 23:23:00,68.0,67.0,29.99,South,187,0.0,3.0,97,0.00,,,0.05,,2013-08-22 04:23:00,
2013-08-21 23:44:00,68.0,67.0,29.99,South,187,0.0,2.0,97,0.00,,,0.05,,2013-08-22 04:44:00,
2013-08-21 23:54:00,67.0,66.0,29.99,South,188,0.0,1.0,97,0.00,,,0.05,,2013-08-22 04:54:00,